sensor_id;sensor_type;location;lat;lon;timestamp;temperature;humidity
1570;DHT22;778;50.120;8.698;2023-04-19T00:01:20;11.30;99.90
1570;DHT22;778;50.120;8.698;2023-04-19T00:03:49;11.30;99.90
1570;DHT22;778;50.120;8.698;2023-04-19T00:06:18;11.30;99.90
1570;DHT22;778;50.120;8.698;2023-04-19T00:08:46;11.30;99.90
1570;DHT22;778;50.120;8.698;2023-04-19T00:11:16;11.30;99.90
1570;DHT22;778;50.120;8.698;2023-04-19T00:13:45;11.30;99.90
1570;DHT22;778;50.120;8.698;2023-04-19T00:16:15;11.30;99.90
1570;DHT22;778;50.120;8.698;2023-04-19T00:18:44;11.30;99.90
1570;DHT22;778;50.120;8.698;2023-04-19T00:21:12;11.30;99.90
1570;DHT22;778;50.120;8.698;2023-04-19T00:23:40;11.30;99.90
1570;DHT22;778;50.120;8.698;2023-04-19T00:26:09;11.30;99.90
1570;DHT22;778;50.120;8.698;2023-04-19T00:28:47;11.30;99.90
1570;DHT22;778;50.120;8.698;2023-04-19T00:31:15;11.30;99.90
1570;DHT22;778;50.120;8.698;2023-04-19T00:33:44;11.30;99.90
1570;DHT22;778;50.120;8.698;2023-04-19T00:36:12;11.30;99.90
1570;DHT22;778;50.120;8.698;2023-04-19T00:38:40;11.30;99.90
1570;DHT22;778;50.120;8.698;2023-04-19T00:41:09;11.30;99.90
1570;DHT22;778;50.120;8.698;2023-04-19T00:43:37;11.30;99.90
1570;DHT22;778;50.120;8.698;2023-04-19T00:46:07;11.20;99.90
1570;DHT22;778;50.120;8.698;2023-04-19T00:48:37;11.20;99.90
1570;DHT22;778;50.120;8.698;2023-04-19T00:51:06;11.20;99.90
1570;DHT22;778;50.120;8.698;2023-04-19T00:53:37;11.20;99.90
1570;DHT22;778;50.120;8.698;2023-04-19T00:56:06;11.20;99.90
1570;DHT22;778;50.120;8.698;2023-04-19T00:58:36;11.20;99.90
1570;DHT22;778;50.120;8.698;2023-04-19T01:01:07;11.10;99.90
1570;DHT22;778;50.120;8.698;2023-04-19T01:03:35;11.10;99.90
1570;DHT22;778;50.120;8.698;2023-04-19T01:06:04;11.00;99.90
1570;DHT22;778;50.120;8.698;2023-04-19T01:08:33;11.00;99.90
1570;DHT22;778;50.120;8.698;2023-04-19T01:11:01;11.00;99.90
1570;DHT22;778;50.120;8.698;2023-04-19T01:13:30;11.00;99.90
1570;DHT22;778;50.120;8.698;2023-04-19T01:15:58;11.10;99.90
1570;DHT22;778;50.120;8.698;2023-04-19T01:18:28;11.10;99.90
1570;DHT22;778;50.120;8.698;2023-04-19T01:21:04;11.10;99.90
1570;DHT22;778;50.120;8.698;2023-04-19T01:23:34;11.00;99.90
1570;DHT22;778;50.120;8.698;2023-04-19T01:26:02;11.00;99.90
1570;DHT22;778;50.120;8.698;2023-04-19T01:28:31;11.00;99.90
1570;DHT22;778;50.120;8.698;2023-04-19T01:31:00;11.00;99.90
1570;DHT22;778;50.120;8.698;2023-04-19T01:33:28;11.00;99.90
1570;DHT22;778;50.120;8.698;2023-04-19T01:35:57;11.00;99.90
1570;DHT22;778;50.120;8.698;2023-04-19T01:38:25;10.90;99.90
1570;DHT22;778;50.120;8.698;2023-04-19T01:40:55;10.90;99.90
1570;DHT22;778;50.120;8.698;2023-04-19T01:43:23;10.90;99.90
1570;DHT22;778;50.120;8.698;2023-04-19T01:45:52;10.90;99.90
1570;DHT22;778;50.120;8.698;2023-04-19T01:48:20;10.90;99.90
1570;DHT22;778;50.120;8.698;2023-04-19T01:50:49;10.90;99.90
1570;DHT22;778;50.120;8.698;2023-04-19T01:53:17;10.90;99.90
1570;DHT22;778;50.120;8.698;2023-04-19T01:55:45;10.90;99.90
1570;DHT22;778;50.120;8.698;2023-04-19T01:58:15;10.90;99.90
1570;DHT22;778;50.120;8.698;2023-04-19T02:00:44;10.90;99.90
1570;DHT22;778;50.120;8.698;2023-04-19T02:03:13;10.90;99.90
1570;DHT22;778;50.120;8.698;2023-04-19T02:05:41;10.90;99.90
1570;DHT22;778;50.120;8.698;2023-04-19T02:08:10;10.90;99.90
1570;DHT22;778;50.120;8.698;2023-04-19T02:10:38;10.90;99.90
1570;DHT22;778;50.120;8.698;2023-04-19T02:13:07;10.90;99.90
1570;DHT22;778;50.120;8.698;2023-04-19T02:15:37;10.90;99.90
1570;DHT22;778;50.120;8.698;2023-04-19T02:18:05;11.00;99.90
1570;DHT22;778;50.120;8.698;2023-04-19T02:20:34;10.90;99.90
1570;DHT22;778;50.120;8.698;2023-04-19T02:23:02;10.90;99.90
1570;DHT22;778;50.120;8.698;2023-04-19T02:25:33;10.90;99.90
1570;DHT22;778;50.120;8.698;2023-04-19T02:28:01;10.80;99.90
1570;DHT22;778;50.120;8.698;2023-04-19T02:30:30;10.80;99.90
1570;DHT22;778;50.120;8.698;2023-04-19T02:33:01;10.80;99.90
1570;DHT22;778;50.120;8.698;2023-04-19T02:35:30;10.80;99.90
1570;DHT22;778;50.120;8.698;2023-04-19T02:37:59;10.80;99.90
1570;DHT22;778;50.120;8.698;2023-04-19T02:40:29;10.80;99.90
1570;DHT22;778;50.120;8.698;2023-04-19T02:42:58;10.70;99.90
1570;DHT22;778;50.120;8.698;2023-04-19T02:45:26;10.70;99.90
1570;DHT22;778;50.120;8.698;2023-04-19T02:47:55;10.70;99.90
1570;DHT22;778;50.120;8.698;2023-04-19T02:50:26;10.60;99.90
1570;DHT22;778;50.120;8.698;2023-04-19T02:52:55;10.60;99.90
1570;DHT22;778;50.120;8.698;2023-04-19T02:55:26;10.60;99.90
1570;DHT22;778;50.120;8.698;2023-04-19T02:58:04;10.50;99.90
1570;DHT22;778;50.120;8.698;2023-04-19T03:00:37;10.50;99.90
1570;DHT22;778;50.120;8.698;2023-04-19T03:03:09;10.50;99.90
1570;DHT22;778;50.120;8.698;2023-04-19T03:05:39;10.50;99.90
1570;DHT22;778;50.120;8.698;2023-04-19T03:08:08;10.40;99.90
1570;DHT22;778;50.120;8.698;2023-04-19T03:10:38;10.40;99.90
1570;DHT22;778;50.120;8.698;2023-04-19T03:13:08;10.40;99.90
1570;DHT22;778;50.120;8.698;2023-04-19T03:15:36;10.40;99.90
1570;DHT22;778;50.120;8.698;2023-04-19T03:18:05;10.40;99.90
1570;DHT22;778;50.120;8.698;2023-04-19T03:20:35;10.40;99.90
1570;DHT22;778;50.120;8.698;2023-04-19T03:23:06;10.40;99.90
1570;DHT22;778;50.120;8.698;2023-04-19T03:25:34;10.40;99.90
1570;DHT22;778;50.120;8.698;2023-04-19T03:28:17;10.50;99.90
1570;DHT22;778;50.120;8.698;2023-04-19T03:31:06;10.50;99.90
1570;DHT22;778;50.120;8.698;2023-04-19T03:33:34;10.50;99.90
1570;DHT22;778;50.120;8.698;2023-04-19T03:36:03;10.50;99.90
1570;DHT22;778;50.120;8.698;2023-04-19T03:38:34;10.50;99.90
1570;DHT22;778;50.120;8.698;2023-04-19T03:41:17;10.50;99.90
1570;DHT22;778;50.120;8.698;2023-04-19T03:43:49;10.50;99.90
1570;DHT22;778;50.120;8.698;2023-04-19T03:46:18;10.50;99.90
1570;DHT22;778;50.120;8.698;2023-04-19T03:48:48;10.50;99.90
1570;DHT22;778;50.120;8.698;2023-04-19T03:51:19;10.50;99.90
1570;DHT22;778;50.120;8.698;2023-04-19T03:53:49;10.50;99.90
1570;DHT22;778;50.120;8.698;2023-04-19T03:56:18;10.50;99.90
1570;DHT22;778;50.120;8.698;2023-04-19T03:58:49;10.50;99.90
1570;DHT22;778;50.120;8.698;2023-04-19T04:01:18;10.50;99.90
1570;DHT22;778;50.120;8.698;2023-04-19T04:03:48;10.50;99.90
1570;DHT22;778;50.120;8.698;2023-04-19T04:06:18;10.60;99.90
1570;DHT22;778;50.120;8.698;2023-04-19T04:08:46;10.50;99.90
1570;DHT22;778;50.120;8.698;2023-04-19T04:11:16;10.60;99.90
1570;DHT22;778;50.120;8.698;2023-04-19T04:13:47;10.50;99.90
1570;DHT22;778;50.120;8.698;2023-04-19T04:16:20;10.50;99.90
1570;DHT22;778;50.120;8.698;2023-04-19T04:18:51;10.50;99.90
1570;DHT22;778;50.120;8.698;2023-04-19T04:21:23;10.50;99.90
1570;DHT22;778;50.120;8.698;2023-04-19T04:23:55;10.50;99.90
1570;DHT22;778;50.120;8.698;2023-04-19T04:26:34;10.60;99.90
1570;DHT22;778;50.120;8.698;2023-04-19T04:29:12;10.60;99.90
1570;DHT22;778;50.120;8.698;2023-04-19T04:31:42;10.60;99.90
1570;DHT22;778;50.120;8.698;2023-04-19T04:34:11;10.60;99.90
1570;DHT22;778;50.120;8.698;2023-04-19T04:36:48;10.60;99.90
1570;DHT22;778;50.120;8.698;2023-04-19T04:39:19;10.60;99.90
1570;DHT22;778;50.120;8.698;2023-04-19T04:41:48;10.60;99.90
1570;DHT22;778;50.120;8.698;2023-04-19T04:44:18;10.60;99.90
1570;DHT22;778;50.120;8.698;2023-04-19T04:46:48;10.60;99.90
1570;DHT22;778;50.120;8.698;2023-04-19T04:49:23;10.70;99.90
1570;DHT22;778;50.120;8.698;2023-04-19T04:51:51;10.70;99.90
1570;DHT22;778;50.120;8.698;2023-04-19T04:54:20;10.70;99.90
1570;DHT22;778;50.120;8.698;2023-04-19T04:56:51;10.70;99.90
1570;DHT22;778;50.120;8.698;2023-04-19T04:59:20;10.70;99.90
1570;DHT22;778;50.120;8.698;2023-04-19T05:01:49;10.70;99.90
1570;DHT22;778;50.120;8.698;2023-04-19T05:04:18;10.70;99.90
1570;DHT22;778;50.120;8.698;2023-04-19T05:06:46;10.60;99.90
1570;DHT22;778;50.120;8.698;2023-04-19T05:09:20;10.60;99.90
1570;DHT22;778;50.120;8.698;2023-04-19T05:11:51;10.60;99.90
1570;DHT22;778;50.120;8.698;2023-04-19T05:14:19;10.60;99.90
1570;DHT22;778;50.120;8.698;2023-04-19T05:16:48;10.60;99.90
1570;DHT22;778;50.120;8.698;2023-04-19T05:19:16;10.60;99.90
1570;DHT22;778;50.120;8.698;2023-04-19T05:21:51;10.60;99.90
1570;DHT22;778;50.120;8.698;2023-04-19T05:24:20;10.60;99.90
1570;DHT22;778;50.120;8.698;2023-04-19T05:26:51;10.70;99.90
1570;DHT22;778;50.120;8.698;2023-04-19T05:29:19;10.70;99.90
1570;DHT22;778;50.120;8.698;2023-04-19T05:31:52;10.70;99.90
1570;DHT22;778;50.120;8.698;2023-04-19T05:34:24;10.70;99.90
1570;DHT22;778;50.120;8.698;2023-04-19T05:36:55;10.80;99.90
1570;DHT22;778;50.120;8.698;2023-04-19T05:39:23;10.80;99.90
1570;DHT22;778;50.120;8.698;2023-04-19T05:41:53;10.80;99.90
1570;DHT22;778;50.120;8.698;2023-04-19T05:44:21;10.90;99.90
1570;DHT22;778;50.120;8.698;2023-04-19T05:46:50;10.80;99.90
1570;DHT22;778;50.120;8.698;2023-04-19T05:49:33;10.90;99.90
1570;DHT22;778;50.120;8.698;2023-04-19T05:52:28;10.90;99.90
1570;DHT22;778;50.120;8.698;2023-04-19T05:54:58;10.80;99.90
1570;DHT22;778;50.120;8.698;2023-04-19T05:57:28;10.90;99.90
1570;DHT22;778;50.120;8.698;2023-04-19T05:59:57;10.90;99.90
1570;DHT22;778;50.120;8.698;2023-04-19T06:02:43;11.00;99.90
1570;DHT22;778;50.120;8.698;2023-04-19T06:05:13;11.00;99.90
1570;DHT22;778;50.120;8.698;2023-04-19T06:07:42;11.00;99.90
1570;DHT22;778;50.120;8.698;2023-04-19T06:10:21;11.10;99.90
1570;DHT22;778;50.120;8.698;2023-04-19T06:12:53;11.10;99.90
1570;DHT22;778;50.120;8.698;2023-04-19T06:15:22;11.10;99.90
1570;DHT22;778;50.120;8.698;2023-04-19T06:17:52;11.20;99.90
1570;DHT22;778;50.120;8.698;2023-04-19T06:20:20;11.20;99.90
1570;DHT22;778;50.120;8.698;2023-04-19T06:22:49;11.20;99.90
1570;DHT22;778;50.120;8.698;2023-04-19T06:25:17;11.20;99.90
1570;DHT22;778;50.120;8.698;2023-04-19T06:27:46;11.10;99.90
1570;DHT22;778;50.120;8.698;2023-04-19T06:30:16;11.10;99.90
1570;DHT22;778;50.120;8.698;2023-04-19T06:32:44;11.00;99.90
1570;DHT22;778;50.120;8.698;2023-04-19T06:35:13;11.10;99.90
1570;DHT22;778;50.120;8.698;2023-04-19T06:37:42;11.10;99.90
1570;DHT22;778;50.120;8.698;2023-04-19T06:40:11;11.10;99.90
1570;DHT22;778;50.120;8.698;2023-04-19T06:42:39;11.00;99.90
1570;DHT22;778;50.120;8.698;2023-04-19T06:45:08;11.00;99.90
1570;DHT22;778;50.120;8.698;2023-04-19T06:47:39;11.00;99.90
1570;DHT22;778;50.120;8.698;2023-04-19T06:50:08;11.10;99.90
1570;DHT22;778;50.120;8.698;2023-04-19T06:52:37;11.00;99.90
1570;DHT22;778;50.120;8.698;2023-04-19T06:55:07;11.20;99.90
1570;DHT22;778;50.120;8.698;2023-04-19T06:57:36;11.10;99.90
1570;DHT22;778;50.120;8.698;2023-04-19T07:00:06;11.10;99.90
1570;DHT22;778;50.120;8.698;2023-04-19T07:02:35;11.10;99.90
1570;DHT22;778;50.120;8.698;2023-04-19T07:05:06;11.10;99.90
1570;DHT22;778;50.120;8.698;2023-04-19T07:07:35;11.00;99.90
1570;DHT22;778;50.120;8.698;2023-04-19T07:10:08;11.00;99.90
1570;DHT22;778;50.120;8.698;2023-04-19T07:12:38;11.00;99.90
1570;DHT22;778;50.120;8.698;2023-04-19T07:15:08;11.00;99.90
1570;DHT22;778;50.120;8.698;2023-04-19T07:17:37;11.00;99.90
1570;DHT22;778;50.120;8.698;2023-04-19T07:20:08;11.10;99.90
1570;DHT22;778;50.120;8.698;2023-04-19T07:22:37;11.20;99.90
1570;DHT22;778;50.120;8.698;2023-04-19T07:25:07;11.20;99.90
1570;DHT22;778;50.120;8.698;2023-04-19T07:27:36;11.20;99.90
1570;DHT22;778;50.120;8.698;2023-04-19T07:30:06;11.10;99.90
1570;DHT22;778;50.120;8.698;2023-04-19T07:32:35;11.20;99.90
1570;DHT22;778;50.120;8.698;2023-04-19T07:35:04;11.30;99.90
1570;DHT22;778;50.120;8.698;2023-04-19T07:37:34;11.30;99.90
1570;DHT22;778;50.120;8.698;2023-04-19T07:40:04;11.40;99.90
1570;DHT22;778;50.120;8.698;2023-04-19T07:42:33;11.40;99.90
1570;DHT22;778;50.120;8.698;2023-04-19T07:45:02;11.40;99.90
1570;DHT22;778;50.120;8.698;2023-04-19T07:47:31;11.40;99.90
1570;DHT22;778;50.120;8.698;2023-04-19T07:50:00;11.50;99.90
1570;DHT22;778;50.120;8.698;2023-04-19T07:52:28;11.60;99.90
1570;DHT22;778;50.120;8.698;2023-04-19T07:54:58;11.40;99.90
1570;DHT22;778;50.120;8.698;2023-04-19T07:57:27;11.40;99.90
1570;DHT22;778;50.120;8.698;2023-04-19T07:59:55;11.60;99.90
1570;DHT22;778;50.120;8.698;2023-04-19T08:02:25;12.00;99.90
1570;DHT22;778;50.120;8.698;2023-04-19T08:04:54;12.40;99.90
1570;DHT22;778;50.120;8.698;2023-04-19T08:07:23;12.90;99.90
1570;DHT22;778;50.120;8.698;2023-04-19T08:09:52;13.40;99.90
1570;DHT22;778;50.120;8.698;2023-04-19T08:12:22;13.50;99.90
1570;DHT22;778;50.120;8.698;2023-04-19T08:15:07;13.70;99.90
1570;DHT22;778;50.120;8.698;2023-04-19T08:17:56;13.70;99.90
1570;DHT22;778;50.120;8.698;2023-04-19T08:20:24;13.90;99.90
1570;DHT22;778;50.120;8.698;2023-04-19T08:22:53;13.90;99.90
1570;DHT22;778;50.120;8.698;2023-04-19T08:25:21;14.00;99.90
1570;DHT22;778;50.120;8.698;2023-04-19T08:27:54;14.20;99.90
1570;DHT22;778;50.120;8.698;2023-04-19T08:30:23;14.40;99.90
1570;DHT22;778;50.120;8.698;2023-04-19T08:32:52;14.50;99.90
1570;DHT22;778;50.120;8.698;2023-04-19T08:35:23;14.50;99.90
1570;DHT22;778;50.120;8.698;2023-04-19T08:37:51;14.70;99.90
1570;DHT22;778;50.120;8.698;2023-04-19T08:40:20;14.80;99.90
1570;DHT22;778;50.120;8.698;2023-04-19T08:42:49;14.70;99.90
1570;DHT22;778;50.120;8.698;2023-04-19T08:45:20;14.80;99.90
1570;DHT22;778;50.120;8.698;2023-04-19T08:47:57;14.80;99.90
1570;DHT22;778;50.120;8.698;2023-04-19T08:50:28;15.20;99.90
1570;DHT22;778;50.120;8.698;2023-04-19T08:53:07;15.40;99.90
1570;DHT22;778;50.120;8.698;2023-04-19T08:55:40;15.30;99.90
1570;DHT22;778;50.120;8.698;2023-04-19T08:58:29;15.40;99.90
1570;DHT22;778;50.120;8.698;2023-04-19T09:01:20;15.50;99.90
1570;DHT22;778;50.120;8.698;2023-04-19T09:04:02;15.50;99.90
1570;DHT22;778;50.120;8.698;2023-04-19T09:06:53;15.70;99.90
1570;DHT22;778;50.120;8.698;2023-04-19T09:09:24;15.50;99.90
1570;DHT22;778;50.120;8.698;2023-04-19T09:11:56;15.50;99.90
1570;DHT22;778;50.120;8.698;2023-04-19T09:14:26;15.30;99.90
1570;DHT22;778;50.120;8.698;2023-04-19T09:17:14;15.70;99.90
1570;DHT22;778;50.120;8.698;2023-04-19T09:19:47;15.90;99.90
1570;DHT22;778;50.120;8.698;2023-04-19T09:22:17;15.70;99.90
1570;DHT22;778;50.120;8.698;2023-04-19T09:24:45;15.90;99.90
1570;DHT22;778;50.120;8.698;2023-04-19T09:27:26;15.70;99.90
1570;DHT22;778;50.120;8.698;2023-04-19T09:29:56;15.90;99.90
1570;DHT22;778;50.120;8.698;2023-04-19T09:32:28;16.10;99.90
1570;DHT22;778;50.120;8.698;2023-04-19T09:35:09;16.40;99.90
1570;DHT22;778;50.120;8.698;2023-04-19T09:37:37;16.20;99.90
1570;DHT22;778;50.120;8.698;2023-04-19T09:40:27;15.90;99.90
1570;DHT22;778;50.120;8.698;2023-04-19T09:42:56;16.00;99.90
1570;DHT22;778;50.120;8.698;2023-04-19T09:45:44;16.30;97.50
1570;DHT22;778;50.120;8.698;2023-04-19T09:48:14;16.30;95.50
1570;DHT22;778;50.120;8.698;2023-04-19T09:50:53;16.10;94.20
1570;DHT22;778;50.120;8.698;2023-04-19T09:53:32;15.70;93.40
1570;DHT22;778;50.120;8.698;2023-04-19T09:56:01;15.60;92.90
1570;DHT22;778;50.120;8.698;2023-04-19T09:58:33;15.90;92.10
1570;DHT22;778;50.120;8.698;2023-04-19T10:01:17;15.90;90.80
1570;DHT22;778;50.120;8.698;2023-04-19T10:03:49;15.40;87.90
1570;DHT22;778;50.120;8.698;2023-04-19T10:06:19;15.30;85.20
1570;DHT22;778;50.120;8.698;2023-04-19T10:08:52;15.20;87.00
1570;DHT22;778;50.120;8.698;2023-04-19T10:11:21;15.10;88.60
1570;DHT22;778;50.120;8.698;2023-04-19T10:13:56;14.90;84.60
1570;DHT22;778;50.120;8.698;2023-04-19T10:16:26;14.90;84.10
1570;DHT22;778;50.120;8.698;2023-04-19T10:18:57;15.30;84.80
1570;DHT22;778;50.120;8.698;2023-04-19T10:21:27;15.40;83.30
1570;DHT22;778;50.120;8.698;2023-04-19T10:23:57;15.60;80.20
1570;DHT22;778;50.120;8.698;2023-04-19T10:26:26;15.60;78.50
1570;DHT22;778;50.120;8.698;2023-04-19T10:28:56;15.70;77.20
1570;DHT22;778;50.120;8.698;2023-04-19T10:31:25;15.90;78.10
1570;DHT22;778;50.120;8.698;2023-04-19T10:33:55;15.60;76.90
1570;DHT22;778;50.120;8.698;2023-04-19T10:36:26;15.80;78.40
1570;DHT22;778;50.120;8.698;2023-04-19T10:38:55;15.60;76.50
1570;DHT22;778;50.120;8.698;2023-04-19T10:41:55;16.10;79.20
1570;DHT22;778;50.120;8.698;2023-04-19T10:44:24;16.40;77.40
1570;DHT22;778;50.120;8.698;2023-04-19T10:46:52;15.90;75.60
1570;DHT22;778;50.120;8.698;2023-04-19T10:49:24;15.60;71.90
1570;DHT22;778;50.120;8.698;2023-04-19T10:51:53;15.30;69.80
1570;DHT22;778;50.120;8.698;2023-04-19T10:54:29;15.50;69.20
1570;DHT22;778;50.120;8.698;2023-04-19T10:56:59;15.80;69.70
1570;DHT22;778;50.120;8.698;2023-04-19T10:59:31;15.50;66.70
1570;DHT22;778;50.120;8.698;2023-04-19T11:02:01;15.40;64.40
1570;DHT22;778;50.120;8.698;2023-04-19T11:04:58;15.20;63.00
1570;DHT22;778;50.120;8.698;2023-04-19T11:07:36;15.50;62.80
1570;DHT22;778;50.120;8.698;2023-04-19T11:10:06;15.50;60.80
1570;DHT22;778;50.120;8.698;2023-04-19T11:12:36;15.50;59.50
1570;DHT22;778;50.120;8.698;2023-04-19T11:15:05;15.60;58.60
1570;DHT22;778;50.120;8.698;2023-04-19T11:17:36;15.30;57.30
1570;DHT22;778;50.120;8.698;2023-04-19T11:20:08;15.30;56.40
1570;DHT22;778;50.120;8.698;2023-04-19T11:22:40;15.70;56.30
1570;DHT22;778;50.120;8.698;2023-04-19T11:25:11;16.00;58.00
1570;DHT22;778;50.120;8.698;2023-04-19T11:27:40;16.10;56.10
1570;DHT22;778;50.120;8.698;2023-04-19T11:30:11;16.00;55.50
1570;DHT22;778;50.120;8.698;2023-04-19T11:32:49;16.20;55.50
1570;DHT22;778;50.120;8.698;2023-04-19T11:35:21;16.20;54.40
1570;DHT22;778;50.120;8.698;2023-04-19T11:37:51;16.30;52.60
1570;DHT22;778;50.120;8.698;2023-04-19T11:40:21;15.90;52.20
1570;DHT22;778;50.120;8.698;2023-04-19T11:42:55;15.60;50.90
1570;DHT22;778;50.120;8.698;2023-04-19T11:45:27;16.00;52.00
1570;DHT22;778;50.120;8.698;2023-04-19T11:48:02;16.20;52.50
1570;DHT22;778;50.120;8.698;2023-04-19T11:50:36;16.40;53.00
1570;DHT22;778;50.120;8.698;2023-04-19T11:53:10;16.50;53.10
1570;DHT22;778;50.120;8.698;2023-04-19T11:55:44;16.30;52.50
1570;DHT22;778;50.120;8.698;2023-04-19T11:58:27;16.30;51.60
1570;DHT22;778;50.120;8.698;2023-04-19T12:01:04;15.60;50.60
1570;DHT22;778;50.120;8.698;2023-04-19T12:03:40;15.10;50.20
1570;DHT22;778;50.120;8.698;2023-04-19T12:06:21;15.40;51.00
1570;DHT22;778;50.120;8.698;2023-04-19T12:08:51;15.50;51.60
1570;DHT22;778;50.120;8.698;2023-04-19T12:11:23;15.60;51.80
1570;DHT22;778;50.120;8.698;2023-04-19T12:14:07;15.70;51.30
1570;DHT22;778;50.120;8.698;2023-04-19T12:16:35;15.90;54.00
1570;DHT22;778;50.120;8.698;2023-04-19T12:19:10;15.90;51.80
1570;DHT22;778;50.120;8.698;2023-04-19T12:21:41;15.80;51.00
1570;DHT22;778;50.120;8.698;2023-04-19T12:24:13;15.40;49.00
1570;DHT22;778;50.120;8.698;2023-04-19T12:26:52;15.40;48.10
1570;DHT22;778;50.120;8.698;2023-04-19T12:29:22;15.60;47.10
1570;DHT22;778;50.120;8.698;2023-04-19T12:31:50;15.60;48.20
1570;DHT22;778;50.120;8.698;2023-04-19T12:34:19;15.50;46.60
1570;DHT22;778;50.120;8.698;2023-04-19T12:36:49;15.30;47.50
1570;DHT22;778;50.120;8.698;2023-04-19T12:39:17;15.40;49.60
1570;DHT22;778;50.120;8.698;2023-04-19T12:41:45;15.70;50.40
1570;DHT22;778;50.120;8.698;2023-04-19T12:44:14;15.70;50.50
1570;DHT22;778;50.120;8.698;2023-04-19T12:46:43;15.80;50.00
1570;DHT22;778;50.120;8.698;2023-04-19T12:49:11;15.80;49.20
1570;DHT22;778;50.120;8.698;2023-04-19T12:51:40;15.70;48.50
1570;DHT22;778;50.120;8.698;2023-04-19T12:54:10;15.50;48.50
1570;DHT22;778;50.120;8.698;2023-04-19T12:56:39;15.50;47.60
1570;DHT22;778;50.120;8.698;2023-04-19T12:59:07;15.30;47.10
1570;DHT22;778;50.120;8.698;2023-04-19T13:01:37;15.50;48.50
1570;DHT22;778;50.120;8.698;2023-04-19T13:04:05;15.20;47.90
1570;DHT22;778;50.120;8.698;2023-04-19T13:06:38;15.40;48.50
1570;DHT22;778;50.120;8.698;2023-04-19T13:09:06;15.00;47.20
1570;DHT22;778;50.120;8.698;2023-04-19T13:11:39;15.20;47.70
1570;DHT22;778;50.120;8.698;2023-04-19T13:14:07;15.40;48.20
1570;DHT22;778;50.120;8.698;2023-04-19T13:16:36;15.60;48.70
1570;DHT22;778;50.120;8.698;2023-04-19T13:19:04;15.60;48.00
1570;DHT22;778;50.120;8.698;2023-04-19T13:21:33;15.70;47.70
1570;DHT22;778;50.120;8.698;2023-04-19T13:24:01;15.80;47.60
1570;DHT22;778;50.120;8.698;2023-04-19T13:26:30;15.60;47.00
1570;DHT22;778;50.120;8.698;2023-04-19T13:29:01;15.60;46.50
1570;DHT22;778;50.120;8.698;2023-04-19T13:31:30;15.40;42.30
1570;DHT22;778;50.120;8.698;2023-04-19T13:33:59;15.10;40.00
1570;DHT22;778;50.120;8.698;2023-04-19T13:36:27;15.10;39.50
1570;DHT22;778;50.120;8.698;2023-04-19T13:38:56;15.10;38.50
1570;DHT22;778;50.120;8.698;2023-04-19T13:41:25;15.10;37.70
1570;DHT22;778;50.120;8.698;2023-04-19T13:43:53;15.20;38.80
1570;DHT22;778;50.120;8.698;2023-04-19T13:46:23;15.20;38.70
1570;DHT22;778;50.120;8.698;2023-04-19T13:48:52;15.30;39.60
1570;DHT22;778;50.120;8.698;2023-04-19T13:51:20;15.30;39.20
1570;DHT22;778;50.120;8.698;2023-04-19T13:53:49;15.30;40.10
1570;DHT22;778;50.120;8.698;2023-04-19T13:56:17;15.20;40.20
1570;DHT22;778;50.120;8.698;2023-04-19T13:58:46;14.90;41.00
1570;DHT22;778;50.120;8.698;2023-04-19T14:01:14;15.10;42.00
1570;DHT22;778;50.120;8.698;2023-04-19T14:03:44;14.80;41.80
1570;DHT22;778;50.120;8.698;2023-04-19T14:06:13;15.10;43.10
1570;DHT22;778;50.120;8.698;2023-04-19T14:08:42;15.20;42.80
1570;DHT22;778;50.120;8.698;2023-04-19T14:11:11;15.10;42.80
1570;DHT22;778;50.120;8.698;2023-04-19T14:13:39;15.20;43.40
1570;DHT22;778;50.120;8.698;2023-04-19T14:16:07;14.90;42.20
1570;DHT22;778;50.120;8.698;2023-04-19T14:18:36;14.90;42.70
1570;DHT22;778;50.120;8.698;2023-04-19T14:21:06;15.00;42.40
1570;DHT22;778;50.120;8.698;2023-04-19T14:23:34;15.00;42.60
1570;DHT22;778;50.120;8.698;2023-04-19T14:26:03;14.80;42.00
1570;DHT22;778;50.120;8.698;2023-04-19T14:28:32;15.00;42.70
1570;DHT22;778;50.120;8.698;2023-04-19T14:31:00;15.00;43.20
1570;DHT22;778;50.120;8.698;2023-04-19T14:33:28;14.90;42.90
1570;DHT22;778;50.120;8.698;2023-04-19T14:35:57;14.90;43.00
1570;DHT22;778;50.120;8.698;2023-04-19T14:38:27;15.10;43.70
1570;DHT22;778;50.120;8.698;2023-04-19T14:40:56;15.00;43.70
1570;DHT22;778;50.120;8.698;2023-04-19T14:43:24;15.20;44.40
1570;DHT22;778;50.120;8.698;2023-04-19T14:45:53;15.10;43.60
1570;DHT22;778;50.120;8.698;2023-04-19T14:48:21;15.10;43.70
1570;DHT22;778;50.120;8.698;2023-04-19T14:50:49;14.90;43.70
1570;DHT22;778;50.120;8.698;2023-04-19T14:53:18;14.70;44.20
1570;DHT22;778;50.120;8.698;2023-04-19T14:55:48;14.80;43.90
1570;DHT22;778;50.120;8.698;2023-04-19T14:58:16;14.50;44.20
1570;DHT22;778;50.120;8.698;2023-04-19T15:00:44;14.20;44.30
1570;DHT22;778;50.120;8.698;2023-04-19T15:03:13;14.10;44.20
1570;DHT22;778;50.120;8.698;2023-04-19T15:05:42;14.20;44.40
1570;DHT22;778;50.120;8.698;2023-04-19T15:08:10;14.40;44.90
1570;DHT22;778;50.120;8.698;2023-04-19T15:10:57;14.40;44.40
1570;DHT22;778;50.120;8.698;2023-04-19T15:13:25;14.40;44.40
1570;DHT22;778;50.120;8.698;2023-04-19T15:15:55;14.60;44.80
1570;DHT22;778;50.120;8.698;2023-04-19T15:18:26;14.60;44.70
1570;DHT22;778;50.120;8.698;2023-04-19T15:20:54;14.70;45.10
1570;DHT22;778;50.120;8.698;2023-04-19T15:23:24;14.60;45.00
1570;DHT22;778;50.120;8.698;2023-04-19T15:25:52;14.80;45.50
1570;DHT22;778;50.120;8.698;2023-04-19T15:28:23;14.70;44.90
1570;DHT22;778;50.120;8.698;2023-04-19T15:30:57;14.50;44.80
1570;DHT22;778;50.120;8.698;2023-04-19T15:33:27;14.50;45.60
1570;DHT22;778;50.120;8.698;2023-04-19T15:35:56;14.50;45.70
1570;DHT22;778;50.120;8.698;2023-04-19T15:38:28;14.50;46.10
1570;DHT22;778;50.120;8.698;2023-04-19T15:40:57;14.50;46.20
1570;DHT22;778;50.120;8.698;2023-04-19T15:43:28;14.40;46.30
1570;DHT22;778;50.120;8.698;2023-04-19T15:45:56;14.50;46.20
1570;DHT22;778;50.120;8.698;2023-04-19T15:48:25;14.50;46.20
1570;DHT22;778;50.120;8.698;2023-04-19T15:50:55;14.50;46.00
1570;DHT22;778;50.120;8.698;2023-04-19T15:53:25;14.10;46.30
1570;DHT22;778;50.120;8.698;2023-04-19T15:55:53;14.10;47.00
1570;DHT22;778;50.120;8.698;2023-04-19T15:58:22;13.90;47.20
1570;DHT22;778;50.120;8.698;2023-04-19T16:00:52;13.80;47.40
1570;DHT22;778;50.120;8.698;2023-04-19T16:03:20;13.70;47.40
1570;DHT22;778;50.120;8.698;2023-04-19T16:05:49;13.80;47.90
1570;DHT22;778;50.120;8.698;2023-04-19T16:08:18;13.70;47.40
1570;DHT22;778;50.120;8.698;2023-04-19T16:10:48;13.90;48.00
1570;DHT22;778;50.120;8.698;2023-04-19T16:13:17;13.90;47.10
1570;DHT22;778;50.120;8.698;2023-04-19T16:15:45;13.90;47.00
1570;DHT22;778;50.120;8.698;2023-04-19T16:18:15;13.80;46.80
1570;DHT22;778;50.120;8.698;2023-04-19T16:20:43;13.60;47.10
1570;DHT22;778;50.120;8.698;2023-04-19T16:23:12;13.70;47.70
1570;DHT22;778;50.120;8.698;2023-04-19T16:25:40;13.80;47.80
1570;DHT22;778;50.120;8.698;2023-04-19T16:28:09;13.80;48.00
1570;DHT22;778;50.120;8.698;2023-04-19T16:30:37;13.80;47.90
1570;DHT22;778;50.120;8.698;2023-04-19T16:33:05;13.80;47.80
1570;DHT22;778;50.120;8.698;2023-04-19T16:35:35;13.60;47.50
1570;DHT22;778;50.120;8.698;2023-04-19T16:38:04;13.50;47.40
1570;DHT22;778;50.120;8.698;2023-04-19T16:40:32;13.50;47.70